Time;durP1;ratioP1;P1;durP2;ratioP2;P2;SDS_P1;SDS_P2;PMS_P1;PMS_P2;Temp;Humidity;BMP_temperature;BMP_pressure;BME280_temperature;BME280_humidity;BME280_pressure;Samples;Min_cycle;Max_cycle;Signal;HPM_P1;HPM_P2
2022/12/21 00:01:12;;;;;;;1.17;0.70;;;15.70;78.90;;;;;;5082631;27;45302;-72
2022/12/21 00:03:41;;;;;;;1.58;0.60;;;15.70;78.80;;;;;;5072910;27;45420;-71
2022/12/21 00:06:08;;;;;;;1.38;0.65;;;15.70;78.80;;;;;;5059669;28;45285;-71
2022/12/21 00:08:39;;;;;;;1.10;0.70;;;15.70;78.90;;;;;;5075751;27;45519;-71
2022/12/21 00:11:06;;;;;;;1.35;0.85;;;15.70;80.00;;;;;;5070899;28;45342;-71
2022/12/21 00:13:33;;;;;;;1.02;0.80;;;15.70;78.90;;;;;;5062042;28;45306;-72
2022/12/21 00:16:02;;;;;;;1.73;0.80;;;15.70;78.90;;;;;;5042922;28;45363;-72
2022/12/21 00:18:28;;;;;;;1.17;0.70;;;15.70;78.90;;;;;;5042221;28;46462;-72
2022/12/21 00:21:05;;;;;;;1.98;0.70;;;15.80;78.90;;;;;;5041742;28;45491;-72
2022/12/21 00:23:33;;;;;;;1.33;0.73;;;15.70;78.90;;;;;;5041764;28;45455;-72
2022/12/21 00:26:01;;;;;;;1.15;0.82;;;15.70;79.00;;;;;;5041813;28;45372;-71
2022/12/21 00:28:27;;;;;;;3.00;0.70;;;15.70;79.10;;;;;;5053263;28;45366;-71
2022/12/21 00:30:54;;;;;;;0.80;0.60;;;15.70;79.10;;;;;;5059956;28;45387;-71
2022/12/21 00:33:21;;;;;;;0.68;0.60;;;15.70;79.10;;;;;;5064893;28;45432;-72
2022/12/21 00:35:49;;;;;;;1.33;0.82;;;15.70;79.20;;;;;;5071335;28;45260;-72
2022/12/21 00:38:18;;;;;;;1.98;0.73;;;15.60;79.10;;;;;;5070823;28;46547;-72
2022/12/21 00:40:45;;;;;;;1.05;0.95;;;15.70;79.10;;;;;;5070799;28;45356;-72
2022/12/21 00:43:13;;;;;;;1.10;0.70;;;15.70;79.20;;;;;;5070480;28;45341;-72
2022/12/21 00:45:39;;;;;;;1.02;0.73;;;15.70;79.10;;;;;;5062451;28;45341;-72
2022/12/21 00:48:08;;;;;;;0.70;0.70;;;15.70;79.10;;;;;;5060968;28;46515;-71
2022/12/21 00:50:35;;;;;;;1.05;0.70;;;15.70;79.00;;;;;;5061765;28;45369;-72
2022/12/21 00:53:01;;;;;;;1.00;0.90;;;15.70;79.00;;;;;;5062413;28;45310;-71
2022/12/21 00:55:30;;;;;;;1.15;0.80;;;15.70;78.90;;;;;;5061946;28;45393;-72
2022/12/21 00:57:59;;;;;;;1.30;0.85;;;15.70;78.80;;;;;;5061465;28;48158;-71
2022/12/21 01:00:26;;;;;;;2.78;1.02;;;15.70;78.70;;;;;;5054896;28;46146;-71
2022/12/21 01:02:53;;;;;;;1.17;0.80;;;15.70;78.70;;;;;;5042498;28;45298;-71
2022/12/21 01:05:20;;;;;;;0.80;0.70;;;15.70;78.70;;;;;;5049553;28;45302;-73
2022/12/21 01:07:47;;;;;;;1.00;0.70;;;15.80;78.70;;;;;;5060825;28;47276;-71
2022/12/21 01:10:15;;;;;;;0.90;0.70;;;15.70;78.70;;;;;;5062484;28;45354;-72
2022/12/21 01:12:43;;;;;;;0.63;0.63;;;15.70;78.60;;;;;;5061952;28;45496;-72
2022/12/21 01:15:10;;;;;;;1.60;1.00;;;15.80;78.70;;;;;;5061846;28;45402;-72
2022/12/21 01:17:37;;;;;;;1.08;0.80;;;15.70;78.60;;;;;;5061012;28;46081;-72
2022/12/21 01:20:04;;;;;;;1.25;1.00;;;15.70;78.60;;;;;;5062245;28;45460;-71
2022/12/21 01:22:31;;;;;;;2.65;1.10;;;15.80;79.70;;;;;;5061692;28;45307;-71
2022/12/21 01:24:58;;;;;;;1.48;0.90;;;15.80;78.70;;;;;;5062003;28;45568;-71
2022/12/21 01:27:25;;;;;;;0.98;0.80;;;15.80;78.70;;;;;;5058263;28;45297;-72
2022/12/21 01:29:53;;;;;;;1.50;0.75;;;15.70;78.60;;;;;;5041238;28;45211;-71
2022/12/21 01:32:20;;;;;;;1.65;1.05;;;15.70;78.70;;;;;;5042039;28;45455;-71
2022/12/21 01:34:46;;;;;;;1.17;0.90;;;15.70;78.70;;;;;;5044784;28;45383;-71
2022/12/21 01:37:13;;;;;;;1.17;1.08;;;15.70;78.70;;;;;;5044656;28;46616;-71
2022/12/21 01:39:40;;;;;;;1.05;0.95;;;15.70;78.70;;;;;;5058654;28;45317;-72
2022/12/21 01:42:11;;;;;;;1.98;0.90;;;15.70;78.70;;;;;;5075719;27;45253;-72
2022/12/21 01:45:02;;;;;;;1.20;1.00;;;15.70;78.70;;;;;;5079293;28;45554;-71
2022/12/21 01:47:37;;;;;;;1.27;0.93;;;15.70;78.70;;;;;;5074169;27;46561;-72
2022/12/21 01:50:20;;;;;;;1.25;1.10;;;15.70;78.80;;;;;;5082658;28;45421;-71
2022/12/21 01:52:46;;;;;;;1.05;0.88;;;15.70;78.70;;;;;;5085151;27;45387;-71
2022/12/21 01:55:14;;;;;;;1.23;1.02;;;15.70;78.70;;;;;;5085449;27;45608;-72
2022/12/21 01:57:41;;;;;;;1.52;1.20;;;15.70;78.70;;;;;;5046602;27;45305;-71
2022/12/21 02:00:11;;;;;;;1.42;0.98;;;15.70;78.60;;;;;;5058015;28;45481;-71
2022/12/21 02:02:43;;;;;;;1.92;1.08;;;15.70;78.60;;;;;;5064746;28;45393;-71
2022/12/21 02:05:18;;;;;;;1.58;1.10;;;15.70;78.50;;;;;;5064479;28;45329;-71
2022/12/21 02:07:46;;;;;;;1.50;1.10;;;15.80;78.60;;;;;;5063392;28;46709;-71
2022/12/21 02:10:14;;;;;;;2.28;1.27;;;15.70;78.40;;;;;;5064265;28;45276;-72
2022/12/21 02:12:42;;;;;;;1.63;1.15;;;15.80;78.50;;;;;;5062677;28;45489;-71
2022/12/21 02:15:11;;;;;;;1.65;1.00;;;15.80;78.40;;;;;;5044392;28;45470;-72
2022/12/21 02:17:47;;;;;;;1.48;1.10;;;15.80;78.40;;;;;;5044273;28;46386;-71
2022/12/21 02:20:49;;;;;;;2.65;1.20;;;15.70;78.20;;;;;;5044419;28;45824;-71
2022/12/21 02:23:47;;;;;;;1.58;1.20;;;15.70;78.20;;;;;;5044474;28;45293;-72
2022/12/21 02:26:48;;;;;;;1.90;1.30;;;15.70;78.20;;;;;;5044486;28;45551;-71
2022/12/21 02:29:47;;;;;;;1.80;1.30;;;15.70;78.20;;;;;;5063017;28;46225;-71
2022/12/21 02:32:27;;;;;;;1.98;1.17;;;15.70;78.10;;;;;;5070676;28;45283;-71
2022/12/21 02:35:03;;;;;;;2.25;1.30;;;15.70;78.30;;;;;;5068682;27;45356;-71
2022/12/21 02:37:35;;;;;;;1.75;1.13;;;15.70;78.30;;;;;;5061627;28;45360;-71
2022/12/21 02:40:13;;;;;;;1.55;1.30;;;15.70;78.40;;;;;;5063981;28;47021;-71
2022/12/21 02:45:38;;;;;;;2.45;1.20;;;15.70;78.40;;;;;;5061961;28;45312;-71
2022/12/21 02:48:14;;;;;;;2.70;1.35;;;15.70;78.40;;;;;;5063448;28;45464;-71
2022/12/21 02:50:44;;;;;;;1.60;1.35;;;15.70;78.30;;;;;;5063736;28;45446;-71
2022/12/21 02:53:16;;;;;;;1.50;1.20;;;15.70;78.30;;;;;;5064110;28;45410;-71
2022/12/21 02:55:45;;;;;;;1.42;1.13;;;15.70;78.40;;;;;;5066337;28;45402;-72
2022/12/21 02:58:14;;;;;;;1.67;1.25;;;15.70;78.30;;;;;;5073205;28;45415;-71
2022/12/21 03:00:56;;;;;;;1.30;1.00;;;15.70;78.30;;;;;;5066695;28;45344;-71
2022/12/21 03:03:50;;;;;;;1.63;1.10;;;15.70;78.30;;;;;;5079827;28;45342;-71
2022/12/21 03:06:35;;;;;;;1.85;1.15;;;15.70;78.10;;;;;;5071322;28;45362;-71
2022/12/21 03:09:16;;;;;;;2.25;1.33;;;15.70;78.10;;;;;;5062097;28;45394;-71
2022/12/21 03:11:49;;;;;;;2.20;1.30;;;15.70;78.10;;;;;;5064309;28;47269;-72
2022/12/21 03:14:26;;;;;;;2.00;1.30;;;15.70;78.00;;;;;;5063678;28;45346;-71
2022/12/21 03:16:58;;;;;;;2.42;1.40;;;15.70;78.00;;;;;;5063629;28;45281;-71
2022/12/21 03:19:34;;;;;;;1.33;0.90;;;15.70;77.90;;;;;;5063199;28;45306;-72
2022/12/21 03:22:05;;;;;;;2.22;1.40;;;15.80;78.00;;;;;;5050540;28;46733;-71
2022/12/21 03:24:35;;;;;;;2.13;1.42;;;15.80;78.00;;;;;;5043300;28;45349;-71
2022/12/21 03:27:11;;;;;;;2.83;1.40;;;15.80;77.90;;;;;;5042676;28;45362;-71
2022/12/21 03:29:43;;;;;;;1.83;1.30;;;15.80;78.00;;;;;;5051503;28;45630;-71
2022/12/21 03:32:14;;;;;;;2.10;1.13;;;15.70;77.90;;;;;;5062967;28;45468;-72
2022/12/21 03:34:46;;;;;;;1.85;1.40;;;15.70;78.00;;;;;;5063852;28;45446;-71
2022/12/21 03:37:19;;;;;;;2.70;1.40;;;15.80;78.10;;;;;;5062405;28;45368;-72
2022/12/21 03:39:50;;;;;;;2.00;1.30;;;15.70;77.90;;;;;;5055752;28;45457;-71
2022/12/21 03:42:21;;;;;;;2.92;1.17;;;15.70;78.00;;;;;;5072851;27;47525;-72
2022/12/21 03:44:52;;;;;;;1.70;1.33;;;15.70;78.00;;;;;;5076470;27;45302;-72
2022/12/21 03:47:27;;;;;;;3.28;1.40;;;15.70;78.00;;;;;;5072652;28;45422;-71
2022/12/21 03:49:58;;;;;;;1.67;0.90;;;15.70;78.00;;;;;;5078293;28;45318;-72
2022/12/21 03:52:30;;;;;;;2.65;1.40;;;15.70;78.00;;;;;;5083065;27;46629;-72
2022/12/21 03:55:03;;;;;;;1.48;1.13;;;15.70;78.00;;;;;;5077706;27;45408;-71
2022/12/21 03:57:30;;;;;;;1.75;1.17;;;15.70;78.00;;;;;;5061694;28;45374;-71
2022/12/21 04:00:01;;;;;;;2.22;1.27;;;15.70;78.00;;;;;;5062541;28;45614;-71
2022/12/21 04:02:33;;;;;;;2.25;1.33;;;15.70;78.00;;;;;;5042994;28;47794;-71
2022/12/21 04:05:07;;;;;;;3.10;1.38;;;15.70;78.90;;;;;;5042804;28;45460;-71
2022/12/21 04:07:36;;;;;;;1.42;0.90;;;15.70;77.90;;;;;;5040358;28;45308;-72
2022/12/21 04:10:05;;;;;;;2.30;1.27;;;15.80;77.90;;;;;;5043068;28;45440;-71
2022/12/21 04:12:37;;;;;;;1.60;1.23;;;15.80;78.40;;;;;;5042631;28;46317;-71
2022/12/21 04:15:06;;;;;;;3.38;1.60;;;15.80;77.90;;;;;;5042961;28;45234;-71
2022/12/21 04:17:33;;;;;;;2.60;1.88;;;15.70;77.60;;;;;;5041954;28;45587;-71
2022/12/21 04:19:58;;;;;;;4.47;2.08;;;15.80;77.20;;;;;;5042996;28;45198;-71
2022/12/21 04:28:11;;;;;;;2.90;2.03;;;15.70;76.20;;;;;;5047962;27;45403;-71
2022/12/21 04:30:39;;;;;;;3.17;2.03;;;15.70;75.90;;;;;;5054917;28;45351;-72
2022/12/21 04:33:06;;;;;;;3.65;2.00;;;15.70;75.90;;;;;;5070618;28;45380;-71
2022/12/21 04:35:34;;;;;;;2.60;1.80;;;15.70;75.90;;;;;;5082572;27;45434;-71
2022/12/21 04:38:01;;;;;;;2.55;1.80;;;15.70;75.80;;;;;;5069324;27;45253;-71
2022/12/21 04:40:29;;;;;;;2.28;1.73;;;15.70;75.70;;;;;;5048487;28;45373;-71
2022/12/21 04:42:56;;;;;;;2.17;1.50;;;15.70;75.70;;;;;;5070880;28;46685;-71
2022/12/21 04:45:22;;;;;;;3.53;1.77;;;15.70;75.50;;;;;;5078781;28;45406;-71
2022/12/21 04:47:52;;;;;;;2.65;1.42;;;15.60;75.20;;;;;;5053359;28;45373;-71
2022/12/21 04:50:19;;;;;;;2.13;1.45;;;15.60;75.00;;;;;;5058566;28;45503;-71
2022/12/21 04:52:46;;;;;;;2.03;1.52;;;15.60;75.10;;;;;;5074611;28;46563;-71
2022/12/21 04:55:14;;;;;;;2.92;1.55;;;15.60;75.10;;;;;;5065496;27;45451;-73
2022/12/21 04:57:42;;;;;;;2.17;1.58;;;15.60;75.00;;;;;;5060534;28;45542;-72
2022/12/21 05:00:10;;;;;;;1.52;1.33;;;15.60;74.90;;;;;;5066767;28;45494;-71
2022/12/21 05:02:37;;;;;;;1.98;1.50;;;15.60;74.80;;;;;;5067126;28;47718;-71
2022/12/21 05:05:04;;;;;;;3.22;1.60;;;15.60;74.40;;;;;;5067248;28;45300;-71
2022/12/21 05:07:31;;;;;;;2.50;1.65;;;15.60;74.40;;;;;;5080812;27;45425;-71
2022/12/21 05:09:58;;;;;;;1.98;1.60;;;15.60;74.40;;;;;;5085480;27;45339;-72
2022/12/21 05:12:26;;;;;;;2.10;1.52;;;15.60;74.40;;;;;;5071186;27;47289;-71
2022/12/21 05:14:53;;;;;;;2.22;1.50;;;15.60;74.40;;;;;;5076799;27;45298;-71
2022/12/21 05:17:20;;;;;;;1.45;1.20;;;15.60;74.40;;;;;;5065371;28;45378;-71
2022/12/21 05:19:47;;;;;;;1.85;1.35;;;15.60;74.50;;;;;;5065457;27;45373;-72
2022/12/21 05:22:16;;;;;;;1.63;1.30;;;15.60;74.40;;;;;;5070827;28;46354;-71
2022/12/21 05:24:43;;;;;;;1.75;1.20;;;15.60;74.40;;;;;;5076134;27;45342;-71
2022/12/21 05:27:09;;;;;;;1.98;1.33;;;15.60;74.10;;;;;;5074151;28;45371;-70
2022/12/21 05:29:37;;;;;;;1.85;1.38;;;15.60;74.00;;;;;;5072376;27;45455;-72
2022/12/21 05:32:05;;;;;;;2.42;1.70;;;15.60;73.90;;;;;;5065196;28;45436;-72
2022/12/21 05:34:32;;;;;;;1.95;1.50;;;15.60;73.90;;;;;;5064925;28;45332;-71
2022/12/21 05:36:59;;;;;;;1.58;1.27;;;15.50;75.00;;;;;;5064605;28;45579;-71
2022/12/21 05:39:26;;;;;;;2.25;1.65;;;15.50;74.30;;;;;;5060432;28;45318;-71
2022/12/21 05:41:52;;;;;;;1.65;1.38;;;15.50;74.30;;;;;;5068660;28;46551;-71
2022/12/21 05:44:20;;;;;;;1.42;1.30;;;15.50;74.30;;;;;;5074512;28;45398;-72
2022/12/21 05:46:48;;;;;;;1.45;1.30;;;15.50;74.30;;;;;;5070068;27;45215;-71
2022/12/21 05:49:15;;;;;;;1.20;1.10;;;15.40;74.20;;;;;;5061150;28;45332;-72
2022/12/21 05:51:41;;;;;;;1.27;1.10;;;15.40;74.30;;;;;;5069090;27;45344;-72
2022/12/21 05:54:08;;;;;;;1.33;1.05;;;15.40;74.00;;;;;;5068350;28;45241;-70
2022/12/21 05:56:36;;;;;;;1.40;1.30;;;15.40;73.90;;;;;;5070019;28;45493;-72
2022/12/21 05:59:03;;;;;;;1.73;1.20;;;15.40;73.80;;;;;;5072819;28;45488;-72
2022/12/21 06:01:30;;;;;;;1.20;1.10;;;15.40;73.80;;;;;;5071735;28;46500;-72
2022/12/21 06:03:59;;;;;;;1.13;1.02;;;15.40;73.80;;;;;;5073163;28;46234;-72
2022/12/21 06:06:25;;;;;;;1.55;1.30;;;15.40;73.80;;;;;;5072701;28;45363;-72
2022/12/21 06:08:53;;;;;;;1.38;1.23;;;15.40;73.50;;;;;;5078785;28;45429;-72
2022/12/21 06:11:22;;;;;;;1.98;1.38;;;15.40;73.40;;;;;;5068995;28;47768;-71
2022/12/21 06:13:49;;;;;;;2.13;1.63;;;15.50;73.20;;;;;;5073106;27;45462;-73
2022/12/21 06:16:18;;;;;;;1.70;1.30;;;15.50;73.10;;;;;;5075437;28;45454;-72
2022/12/21 06:18:45;;;;;;;2.45;1.70;;;15.50;73.20;;;;;;5056321;27;45478;-73
2022/12/21 06:21:15;;;;;;;2.17;1.58;;;15.50;73.60;;;;;;5060566;28;47805;-72
2022/12/21 06:23:43;;;;;;;2.13;1.55;;;15.60;74.00;;;;;;5065623;28;45737;-74
2022/12/21 06:26:14;;;;;;;1.92;1.60;;;15.60;74.40;;;;;;5065854;28;45364;-72
2022/12/21 06:28:41;;;;;;;2.50;1.67;;;15.60;74.40;;;;;;5065766;28;45237;-72
2022/12/21 06:31:10;;;;;;;2.00;1.38;;;15.60;74.40;;;;;;5065727;28;45222;-72
2022/12/21 06:33:37;;;;;;;3.85;1.35;;;15.60;74.40;;;;;;5065182;28;45244;-72
2022/12/21 06:36:08;;;;;;;1.60;1.30;;;15.60;74.40;;;;;;5064727;28;45482;-72
2022/12/21 06:38:36;;;;;;;1.73;1.40;;;15.60;74.40;;;;;;5069407;28;45338;-72
2022/12/21 06:41:05;;;;;;;2.67;1.50;;;15.60;74.40;;;;;;5084949;27;46207;-72
2022/12/21 06:43:33;;;;;;;2.25;1.38;;;15.60;74.50;;;;;;5084001;27;45377;-73
2022/12/21 06:46:02;;;;;;;1.30;1.17;;;15.60;74.50;;;;;;5070629;27;45269;-72
2022/12/21 06:48:31;;;;;;;1.83;1.17;;;15.60;74.70;;;;;;5063898;28;45349;-72
2022/12/21 06:50:59;;;;;;;2.50;1.10;;;15.60;75.00;;;;;;5063752;28;47044;-73
2022/12/21 06:53:30;;;;;;;1.00;0.90;;;15.60;75.00;;;;;;5062404;28;45332;-72
2022/12/21 06:56:03;;;;;;;2.22;1.20;;;15.60;75.20;;;;;;5063806;28;45319;-72
2022/12/21 06:58:31;;;;;;;1.63;1.17;;;15.60;75.70;;;;;;5063721;28;45420;-73
2022/12/21 07:01:04;;;;;;;1.90;1.20;;;15.60;76.30;;;;;;5062322;28;45493;-72
2022/12/21 07:03:30;;;;;;;1.55;1.17;;;15.60;74.70;;;;;;5064888;28;45398;-72
2022/12/21 07:05:57;;;;;;;1.70;1.02;;;15.60;74.40;;;;;;5064450;28;45351;-72
2022/12/21 07:08:25;;;;;;;1.75;1.15;;;15.70;74.50;;;;;;5062963;28;45356;-72
2022/12/21 07:10:57;;;;;;;3.00;1.33;;;15.70;74.50;;;;;;5064172;28;45691;-72
2022/12/21 07:13:26;;;;;;;2.45;1.58;;;15.70;74.20;;;;;;5064246;28;45544;-71
2022/12/21 07:15:53;;;;;;;1.80;1.40;;;15.70;74.00;;;;;;5064261;28;45342;-72
2022/12/21 07:18:20;;;;;;;1.48;1.27;;;15.60;73.60;;;;;;5063491;28;45377;-71
2022/12/21 07:20:47;;;;;;;1.60;1.30;;;15.70;73.60;;;;;;5043588;28;47535;-72
2022/12/21 07:23:15;;;;;;;1.02;1.00;;;15.70;73.60;;;;;;5043163;28;45902;-72
2022/12/21 07:25:41;;;;;;;1.50;1.00;;;15.70;73.50;;;;;;5042789;28;45419;-72
2022/12/21 07:28:08;;;;;;;1.40;1.00;;;15.60;73.30;;;;;;5042997;28;45265;-72
2022/12/21 07:30:36;;;;;;;1.27;1.02;;;15.60;73.40;;;;;;5042990;28;47635;-72
2022/12/21 07:33:03;;;;;;;1.80;0.93;;;15.60;73.40;;;;;;5043136;28;45742;-72
2022/12/21 07:35:31;;;;;;;1.40;1.00;;;15.60;73.40;;;;;;5042646;28;45270;-72
2022/12/21 07:37:58;;;;;;;0.90;0.85;;;15.60;73.50;;;;;;5053903;28;45629;-72
2022/12/21 07:40:25;;;;;;;1.80;1.10;;;15.60;73.40;;;;;;5074121;28;48036;-72
2022/12/21 07:42:52;;;;;;;1.25;0.90;;;15.60;73.30;;;;;;5084022;27;45382;-72
2022/12/21 07:45:19;;;;;;;0.70;0.70;;;15.60;73.40;;;;;;5083431;27;45385;-71
2022/12/21 07:47:48;;;;;;;0.98;0.88;;;15.60;73.50;;;;;;5083049;27;45373;-72
2022/12/21 07:50:15;;;;;;;1.48;0.98;;;15.60;73.90;;;;;;5075822;27;46610;-72
2022/12/21 07:52:41;;;;;;;1.38;1.00;;;15.60;74.40;;;;;;5061941;28;45373;-72
2022/12/21 07:55:08;;;;;;;1.17;0.93;;;15.60;74.40;;;;;;5063244;28;45363;-71
2022/12/21 07:57:36;;;;;;;1.25;0.80;;;15.60;74.40;;;;;;5062533;28;45468;-72
2022/12/21 08:00:04;;;;;;;0.80;0.80;;;15.60;74.50;;;;;;5062347;28;45530;-72
2022/12/21 08:02:31;;;;;;;1.33;0.90;;;15.60;74.40;;;;;;5060915;28;45472;-72
2022/12/21 08:04:59;;;;;;;1.25;1.00;;;15.60;74.40;;;;;;5061682;28;45338;-72
2022/12/21 08:07:26;;;;;;;1.42;0.90;;;15.60;74.40;;;;;;5060012;28;45364;-72
2022/12/21 08:09:53;;;;;;;1.13;0.90;;;15.60;74.40;;;;;;5061253;28;45434;-72
2022/12/21 08:12:20;;;;;;;2.10;1.05;;;15.60;74.60;;;;;;5063184;28;45364;-72
2022/12/21 08:14:47;;;;;;;0.90;0.70;;;15.60;74.70;;;;;;5060661;28;45242;-73
2022/12/21 08:17:14;;;;;;;1.00;0.75;;;15.70;74.90;;;;;;5062490;28;45351;-72
2022/12/21 08:19:40;;;;;;;1.42;0.82;;;15.70;75.90;;;;;;5061898;28;46391;-72
2022/12/21 08:22:09;;;;;;;1.05;0.90;;;15.70;74.70;;;;;;5061802;28;45341;-72
2022/12/21 08:24:36;;;;;;;1.90;1.00;;;15.70;75.00;;;;;;5062489;28;45316;-72
2022/12/21 08:27:03;;;;;;;1.42;1.00;;;15.70;75.20;;;;;;5056756;28;45562;-72
2022/12/21 08:29:30;;;;;;;1.10;0.90;;;15.70;75.10;;;;;;5058528;28;47296;-72
2022/12/21 08:31:57;;;;;;;1.88;1.27;;;15.70;75.00;;;;;;5062785;28;45280;-72
2022/12/21 08:34:24;;;;;;;0.90;0.80;;;15.70;75.20;;;;;;5062225;28;45565;-72
2022/12/21 08:36:50;;;;;;;1.52;1.05;;;15.60;75.20;;;;;;5063462;28;45470;-72
2022/12/21 08:39:18;;;;;;;1.17;0.88;;;15.60;75.20;;;;;;5061632;28;48246;-72
2022/12/21 08:41:45;;;;;;;1.08;0.90;;;15.60;75.20;;;;;;5062421;28;45319;-72
2022/12/21 08:44:12;;;;;;;2.85;1.05;;;15.60;75.20;;;;;;5058651;28;45434;-72
2022/12/21 08:46:39;;;;;;;1.75;1.30;;;15.60;75.30;;;;;;5063135;28;45348;-72
2022/12/21 08:49:06;;;;;;;1.58;1.17;;;15.70;75.40;;;;;;5065622;28;45277;-71
2022/12/21 08:51:33;;;;;;;1.85;0.98;;;15.60;75.40;;;;;;5064764;28;45307;-72
2022/12/21 08:54:00;;;;;;;1.58;1.25;;;15.70;75.60;;;;;;5066422;28;45242;-72
2022/12/21 08:56:28;;;;;;;1.90;1.40;;;15.60;75.50;;;;;;5064899;28;45556;-72
2022/12/21 08:58:55;;;;;;;2.10;1.60;;;15.70;75.40;;;;;;5064966;28;46949;-72
2022/12/21 09:01:23;;;;;;;2.20;1.40;;;15.70;75.40;;;;;;5063963;28;45485;-72
2022/12/21 09:03:50;;;;;;;2.88;1.73;;;15.70;75.40;;;;;;5064183;28;45269;-72
2022/12/21 09:06:17;;;;;;;2.70;1.90;;;15.70;75.20;;;;;;5064868;28;45566;-72
2022/12/21 09:08:43;;;;;;;2.90;2.00;;;15.80;75.20;;;;;;5063283;28;46109;-72
2022/12/21 09:11:12;;;;;;;2.17;1.75;;;15.70;75.70;;;;;;5065265;28;45289;-72
2022/12/21 09:13:40;;;;;;;4.40;2.65;;;15.70;74.50;;;;;;5064152;28;45394;-72
2022/12/21 09:16:13;;;;;;;5.20;3.00;;;15.70;74.50;;;;;;5065419;28;45522;-71
2022/12/21 09:18:40;;;;;;;5.28;3.13;;;15.70;74.50;;;;;;5058658;28;46740;-71
2022/12/21 09:21:07;;;;;;;5.35;3.00;;;15.70;74.50;;;;;;5064815;28;45365;-72
2022/12/21 09:23:34;;;;;;;5.43;3.15;;;15.80;74.60;;;;;;5065346;28;45365;-72
2022/12/21 09:26:01;;;;;;;64.65;6.70;;;15.70;74.50;;;;;;5067196;28;45291;-74
2022/12/21 09:28:35;;;;;;;31.05;5.53;;;15.70;74.50;;;;;;5067687;28;47657;-74
2022/12/21 09:31:09;;;;;;;14.20;4.78;;;15.70;74.50;;;;;;5067211;28;45253;-70
2022/12/21 09:33:36;;;;;;;20.98;4.30;;;15.70;74.50;;;;;;5059380;28;45344;-73
2022/12/21 09:36:04;;;;;;;12.80;3.85;;;15.80;74.60;;;;;;5066899;28;45496;-74
2022/12/21 09:38:31;;;;;;;8.27;3.95;;;15.80;74.60;;;;;;5066163;28;46266;-74
2022/12/21 09:41:01;;;;;;;8.35;3.75;;;15.70;74.50;;;;;;5067574;28;45304;-75
2022/12/21 09:43:38;;;;;;;7.60;3.67;;;15.70;74.50;;;;;;5067015;28;45387;-72
2022/12/21 09:46:11;;;;;;;9.23;3.65;;;15.70;74.50;;;;;;5063064;28;45683;-74
2022/12/21 09:48:41;;;;;;;7.70;3.53;;;15.80;74.00;;;;;;5066068;28;45523;-75
2022/12/21 09:51:14;;;;;;;8.23;3.47;;;15.80;74.70;;;;;;5066221;28;45402;-75
2022/12/21 09:53:46;;;;;;;8.32;2.90;;;15.70;74.50;;;;;;5046500;28;45444;-74
2022/12/21 09:56:18;;;;;;;7.68;3.05;;;15.70;74.50;;;;;;5047693;28;45249;-74
2022/12/21 09:58:48;;;;;;;6.05;3.03;;;15.70;74.50;;;;;;5063429;28;45528;-74
2022/12/21 10:01:22;;;;;;;6.38;3.13;;;15.80;74.60;;;;;;5065961;28;45318;-75
2022/12/21 10:04:15;;;;;;;4.30;2.85;;;15.80;74.60;;;;;;5066281;28;45450;-74
2022/12/21 10:07:01;;;;;;;6.43;2.80;;;15.80;74.60;;;;;;5066256;28;45420;-74
2022/12/21 10:09:53;;;;;;;4.97;2.33;;;15.80;74.60;;;;;;5062005;28;46555;-74
2022/12/21 10:12:30;;;;;;;4.32;2.60;;;15.80;74.60;;;;;;5066072;28;45446;-75
2022/12/21 10:15:09;;;;;;;3.45;2.65;;;15.80;74.60;;;;;;5065947;28;45362;-74
2022/12/21 10:17:50;;;;;;;5.57;2.08;;;15.80;74.70;;;;;;5066539;28;45503;-74
2022/12/21 10:20:29;;;;;;;5.93;2.30;;;15.80;74.60;;;;;;5065856;28;46632;-74
2022/12/21 10:23:00;;;;;;;6.28;2.50;;;15.80;74.60;;;;;;5066216;28;45403;-74
2022/12/21 10:25:38;;;;;;;3.70;2.05;;;15.80;74.60;;;;;;5065725;28;45428;-75
2022/12/21 10:28:18;;;;;;;3.58;2.20;;;15.80;74.60;;;;;;5047045;28;45352;-75
2022/12/21 10:30:56;;;;;;;5.18;2.30;;;15.70;74.50;;;;;;5063654;28;47087;-75
2022/12/21 10:33:25;;;;;;;4.00;2.33;;;15.80;74.60;;;;;;5065026;28;45312;-74
2022/12/21 10:35:56;;;;;;;4.20;2.05;;;15.80;74.60;;;;;;5064836;28;45284;-74
2022/12/21 10:38:32;;;;;;;3.47;2.00;;;15.70;74.50;;;;;;5065004;28;45348;-75
2022/12/21 10:41:01;;;;;;;2.28;1.50;;;15.70;74.50;;;;;;5065165;28;47977;-74
2022/12/21 10:43:28;;;;;;;2.80;1.70;;;15.70;74.50;;;;;;5064951;28;45381;-75
2022/12/21 10:45:54;;;;;;;3.67;1.80;;;15.70;74.50;;;;;;5065185;28;45260;-74
2022/12/21 10:48:21;;;;;;;2.85;1.77;;;15.80;74.60;;;;;;5065456;28;45588;-74
2022/12/21 10:50:52;;;;;;;2.90;1.60;;;15.80;74.60;;;;;;5064774;28;48527;-74
2022/12/21 10:53:24;;;;;;;2.88;1.50;;;15.80;74.60;;;;;;5064670;28;45862;-75
2022/12/21 10:55:52;;;;;;;3.10;1.83;;;15.80;74.60;;;;;;5062614;28;45445;-74
2022/12/21 10:58:22;;;;;;;3.35;1.50;;;15.80;74.60;;;;;;5065466;28;45474;-74
2022/12/21 11:00:53;;;;;;;4.18;1.23;;;15.80;74.60;;;;;;5062196;28;48321;-75
2022/12/21 11:03:26;;;;;;;3.67;1.85;;;15.80;75.60;;;;;;5052333;28;45337;-74
2022/12/21 11:05:55;;;;;;;2.67;1.58;;;15.80;74.60;;;;;;5064965;28;45408;-74
2022/12/21 11:08:27;;;;;;;4.15;1.27;;;15.80;74.60;;;;;;5064718;28;45345;-74
2022/12/21 11:10:57;;;;;;;2.85;1.83;;;15.90;74.70;;;;;;5065093;28;46502;-74
2022/12/21 11:13:26;;;;;;;2.97;1.40;;;15.90;74.20;;;;;;5064744;28;45383;-74
2022/12/21 11:15:55;;;;;;;4.75;1.63;;;15.80;73.90;;;;;;5061470;28;45388;-74
2022/12/21 11:18:30;;;;;;;2.47;1.50;;;15.80;73.80;;;;;;5064979;28;45428;-74
2022/12/21 11:21:00;;;;;;;3.53;1.55;;;15.80;73.80;;;;;;5044619;28;46705;-74
2022/12/21 11:23:27;;;;;;;3.33;1.80;;;15.80;74.80;;;;;;5045380;28;45413;-74
2022/12/21 11:25:55;;;;;;;2.35;1.42;;;15.80;73.70;;;;;;5043523;28;45306;-74
2022/12/21 11:28:23;;;;;;;3.40;1.77;;;15.80;73.60;;;;;;5050866;28;45439;-74
2022/12/21 11:30:54;;;;;;;3.53;1.55;;;15.70;73.60;;;;;;5064036;28;47196;-73
2022/12/21 11:33:22;;;;;;;1.67;1.25;;;15.80;73.50;;;;;;5064478;28;45481;-74
2022/12/21 11:36:10;;;;;;;4.05;1.50;;;15.70;73.40;;;;;;5064097;28;45323;-74
2022/12/21 11:38:40;;;;;;;3.47;1.40;;;15.80;73.40;;;;;;5064372;28;45317;-74
2022/12/21 11:41:18;;;;;;;2.90;1.70;;;15.70;73.30;;;;;;5064061;28;46600;-74
2022/12/21 11:43:46;;;;;;;3.47;1.55;;;15.70;73.20;;;;;;5064656;28;45245;-73
2022/12/21 11:46:27;;;;;;;3.65;1.52;;;15.70;73.20;;;;;;5065526;28;45275;-74
2022/12/21 11:49:08;;;;;;;5.25;1.73;;;15.70;73.00;;;;;;5064703;28;45334;-74
2022/12/21 11:51:41;;;;;;;2.40;1.45;;;15.70;73.10;;;;;;5064183;28;47341;-74
2022/12/21 11:54:22;;;;;;;3.53;1.35;;;15.70;73.10;;;;;;5064439;28;45201;-74
2022/12/21 11:56:57;;;;;;;3.42;1.30;;;15.70;73.30;;;;;;5064661;28;45495;-74
2022/12/21 11:59:49;;;;;;;3.00;1.10;;;15.70;73.40;;;;;;5041857;28;45371;-74
2022/12/21 12:02:38;;;;;;;4.05;1.30;;;15.70;73.30;;;;;;5059172;28;45524;-74
2022/12/21 12:05:20;;;;;;;3.20;1.02;;;15.70;73.20;;;;;;5063799;28;45319;-74
2022/12/21 12:07:54;;;;;;;2.85;1.08;;;15.70;73.10;;;;;;5062548;28;45285;-74
2022/12/21 12:10:47;;;;;;;4.13;1.25;;;15.70;73.20;;;;;;5064176;28;45358;-74
2022/12/21 12:13:30;;;;;;;2.35;1.02;;;15.70;73.30;;;;;;5064837;28;45347;-74
2022/12/21 12:16:06;;;;;;;1.48;0.80;;;15.80;73.60;;;;;;5064792;28;45600;-74
2022/12/21 12:18:52;;;;;;;2.30;0.80;;;15.70;73.60;;;;;;5063422;28;45209;-74
2022/12/21 12:21:49;;;;;;;3.30;1.30;;;15.80;73.80;;;;;;5064959;28;45176;-74
2022/12/21 12:24:45;;;;;;;1.75;0.90;;;15.70;73.70;;;;;;5044755;28;45285;-74
2022/12/21 12:27:22;;;;;;;2.30;0.70;;;15.80;73.90;;;;;;5044548;28;45240;-74
2022/12/21 12:30:07;;;;;;;1.42;0.85;;;15.80;75.00;;;;;;5058627;28;45544;-74
2022/12/21 12:32:50;;;;;;;1.67;0.73;;;15.70;74.20;;;;;;5056292;28;45245;-74
2022/12/21 12:35:54;;;;;;;2.70;1.00;;;15.70;74.40;;;;;;5062713;28;47314;-74
2022/12/21 12:38:30;;;;;;;2.35;0.80;;;15.70;74.40;;;;;;5037723;28;45486;-74
2022/12/21 12:41:10;;;;;;;1.80;0.85;;;15.70;74.50;;;;;;5058361;28;45426;-74
2022/12/21 12:43:49;;;;;;;2.50;1.02;;;15.70;74.50;;;;;;5063370;28;45402;-75
2022/12/21 12:46:27;;;;;;;1.70;0.70;;;15.70;74.50;;;;;;5062907;28;47939;-74
2022/12/21 12:49:05;;;;;;;1.17;0.70;;;15.70;74.50;;;;;;5062331;28;45329;-74
2022/12/21 12:51:39;;;;;;;2.33;0.88;;;15.70;74.00;;;;;;5062526;28;45403;-74
2022/12/21 12:54:13;;;;;;;1.98;0.90;;;15.80;74.00;;;;;;5062128;28;45269;-74
2022/12/21 12:56:50;;;;;;;1.55;0.68;;;15.80;74.00;;;;;;5061571;28;46606;-74
2022/12/21 12:59:24;;;;;;;1.45;0.80;;;15.80;73.80;;;;;;5053072;28;45316;-74
2022/12/21 13:01:56;;;;;;;3.55;0.77;;;15.80;73.70;;;;;;5040631;28;45395;-75
2022/12/21 13:04:54;;;;;;;1.40;0.70;;;15.90;73.90;;;;;;5041937;28;45306;-74
2022/12/21 13:07:35;;;;;;;0.68;0.45;;;15.90;74.80;;;;;;5041284;28;46825;-75
2022/12/21 13:10:09;;;;;;;1.48;0.68;;;15.90;73.70;;;;;;5041359;28;45423;-74
2022/12/21 13:12:44;;;;;;;2.47;0.95;;;15.90;73.80;;;;;;5041502;28;45522;-74
2022/12/21 13:15:18;;;;;;;2.20;1.00;;;15.90;73.80;;;;;;5042850;28;45267;-74